Terminal Aerodrome Forecast
Issued by NWS

Home | Current Version | Previous Version | Text Only | Print | Product List | Glossary On
Versions: 1 2 3 4 5 6 7 8 9 10 11 12 13 14
000
FTUS45 KPSR 251728
TAFIPL
TAF
KIPL 251728Z 2518/2618 26018G28KT P6SM FEW070 SCT120
     FM252100 27028G40KT 5SM BLDU FEW070 SCT120
     FM260500 26020G30KT P6SM FEW070 SCT120
     FM261200 26012KT P6SM FEW070=

USA.gov is the U.S. government's official web portal to all federal, state and local government web resources and services.